Berclair, Texas
Current Conditions -  °F | °C
As of 5:55 PM on Saturday 22 Nov 2014 (Local Time) from KBEA Reporting Station
Clear Clear  
Wind Chill: 73°   Ceiling: Unl
Heat Index: 73°   Visibility: 10mi
Dew Point: 69°   Wind: 10mph
Humidity: 90%   Direction: 170°S
Pressure: 29.76"   Gusts: NA
Location:  28.53°N, 97.59°W
Report Text: KBEA 222355Z AUTO 17009KT 10SM CLR 23/21 A2976 RMK AO2 LTG DSNT NE T02250208 10240 20215
Loading
Personal Weather Stations






























Interactive Weather Map New forecast layout! Learn more

10-Day Weather Forecast

Advertisements
Track Severe Weather on mobile